Time,TemperatureF,DewpointF,PressureIn,WindDirection,WindDirectionDegrees,WindSpeedMPH,WindSpeedGustMPH,Humidity,HourlyPrecipIn,Conditions,Clouds,dailyrainin,SoftwareType,DateUTC
2013-07-19 00:00:00,74.5,45.8,30.09,SW,234,0.0,0.0,36,0.00,,,0.00,Wunderground v.1.15,2013-07-19 05:00:00,
2013-07-19 00:10:00,74.5,45.8,30.08,SW,234,0.0,0.0,36,0.00,,,0.00,Wunderground v.1.15,2013-07-19 05:10:00,
2013-07-19 00:20:00,74.2,46.2,30.08,SW,234,0.0,0.0,37,0.00,,,0.00,Wunderground v.1.15,2013-07-19 05:20:00,
2013-07-19 00:30:00,74.1,46.2,30.08,SW,234,0.0,0.0,37,0.00,,,0.00,Wunderground v.1.15,2013-07-19 05:30:00,
2013-07-19 00:40:00,73.9,46.0,30.07,SW,234,0.0,0.0,37,0.00,,,0.00,Wunderground v.1.15,2013-07-19 05:40:00,
2013-07-19 00:50:00,73.9,46.0,30.07,SW,234,0.0,0.0,37,0.00,,,0.00,Wunderground v.1.15,2013-07-19 05:50:00,
2013-07-19 01:00:00,73.8,45.9,30.07,SW,234,0.0,0.0,37,0.00,,,0.00,Wunderground v.1.15,2013-07-19 06:00:00,
2013-07-19 01:10:00,73.6,45.7,30.06,SW,234,0.0,0.0,37,0.00,,,0.00,Wunderground v.1.15,2013-07-19 06:10:00,
2013-07-19 01:20:00,73.5,45.6,30.06,SW,234,0.0,0.0,37,0.00,,,0.00,Wunderground v.1.15,2013-07-19 06:20:00,
2013-07-19 01:30:00,73.4,45.5,30.06,SW,234,0.0,0.0,37,0.00,,,0.00,Wunderground v.1.15,2013-07-19 06:30:00,
2013-07-19 01:40:00,73.3,45.4,30.05,SW,234,0.0,0.0,37,0.00,,,0.00,Wunderground v.1.15,2013-07-19 06:40:00,
2013-07-19 01:50:00,73.2,45.4,30.05,SW,234,0.0,0.0,37,0.00,,,0.00,Wunderground v.1.15,2013-07-19 06:50:00,
2013-07-19 02:00:00,73.0,45.2,30.04,SW,234,0.0,0.0,37,0.00,,,0.00,Wunderground v.1.15,2013-07-19 07:00:00,
2013-07-19 02:10:00,73.0,45.2,30.04,SW,234,0.0,0.0,37,0.00,,,0.00,Wunderground v.1.15,2013-07-19 07:10:00,
2013-07-19 02:20:00,72.9,44.4,30.04,SW,234,0.0,0.0,36,0.00,,,0.00,Wunderground v.1.15,2013-07-19 07:20:00,
2013-07-19 02:30:00,72.8,44.3,30.04,SW,234,0.0,0.0,36,0.00,,,0.00,Wunderground v.1.15,2013-07-19 07:30:00,
2013-07-19 02:40:00,72.7,44.2,30.04,SW,234,0.0,0.0,36,0.00,,,0.00,Wunderground v.1.15,2013-07-19 07:40:00,
2013-07-19 02:50:00,72.6,44.1,30.04,SW,234,0.0,0.0,36,0.00,,,0.00,Wunderground v.1.15,2013-07-19 07:50:00,
2013-07-19 03:00:00,72.5,44.0,30.03,SW,234,0.0,0.0,36,0.00,,,0.00,Wunderground v.1.15,2013-07-19 08:00:00,
2013-07-19 03:10:00,72.5,44.0,30.03,SW,234,0.0,0.0,36,0.00,,,0.00,Wunderground v.1.15,2013-07-19 08:10:00,
2013-07-19 03:20:00,72.5,44.0,30.03,SW,234,0.0,0.0,36,0.00,,,0.00,Wunderground v.1.15,2013-07-19 08:20:00,
2013-07-19 03:30:00,72.4,43.9,30.03,SW,234,0.0,0.0,36,0.00,,,0.00,Wunderground v.1.15,2013-07-19 08:30:00,
2013-07-19 03:40:00,72.3,43.8,30.03,SW,234,0.0,0.0,36,0.00,,,0.00,Wunderground v.1.15,2013-07-19 08:40:00,
2013-07-19 03:50:00,72.2,43.8,30.03,SW,234,0.0,0.0,36,0.00,,,0.00,Wunderground v.1.15,2013-07-19 08:50:00,
2013-07-19 04:00:00,72.0,44.3,30.03,SW,234,0.0,0.0,37,0.00,,,0.00,Wunderground v.1.15,2013-07-19 09:00:00,
2013-07-19 04:10:00,72.0,44.3,30.04,SW,234,0.0,0.0,37,0.00,,,0.00,Wunderground v.1.15,2013-07-19 09:10:00,
2013-07-19 04:20:00,71.9,44.2,30.04,SW,234,0.0,0.0,37,0.00,,,0.00,Wunderground v.1.15,2013-07-19 09:20:00,
2013-07-19 04:30:00,71.7,44.0,30.03,SW,234,0.0,0.0,37,0.00,,,0.00,Wunderground v.1.15,2013-07-19 09:30:00,
2013-07-19 04:40:00,71.6,43.9,30.04,SW,234,0.0,0.0,37,0.00,,,0.00,Wunderground v.1.15,2013-07-19 09:40:00,
2013-07-19 04:50:00,71.6,43.9,30.04,SW,234,0.0,0.0,37,0.00,,,0.00,Wunderground v.1.15,2013-07-19 09:50:00,
2013-07-19 05:00:00,71.5,43.8,30.04,SW,234,0.0,0.0,37,0.00,,,0.00,Wunderground v.1.15,2013-07-19 10:00:00,
2013-07-19 05:10:00,71.5,43.8,30.04,SW,234,0.0,0.0,37,0.00,,,0.00,Wunderground v.1.15,2013-07-19 10:10:00,
2013-07-19 05:20:00,71.5,43.8,30.04,SW,234,0.0,0.0,37,0.00,,,0.00,Wunderground v.1.15,2013-07-19 10:20:00,
2013-07-19 05:30:00,71.4,43.8,30.04,SW,234,0.0,0.0,37,0.00,,,0.00,Wunderground v.1.15,2013-07-19 10:30:00,
2013-07-19 05:40:00,71.4,43.8,30.04,SW,234,0.0,0.0,37,0.00,,,0.00,Wunderground v.1.15,2013-07-19 10:40:00,
2013-07-19 05:50:00,71.4,43.8,30.04,SW,234,0.0,0.0,37,0.00,,,0.00,Wunderground v.1.15,2013-07-19 10:50:00,
2013-07-19 06:00:00,71.4,43.8,30.05,SW,234,0.0,0.0,37,0.00,,,0.00,Wunderground v.1.15,2013-07-19 11:00:00,
2013-07-19 06:10:00,71.4,43.8,30.05,SW,234,0.0,0.0,37,0.00,,,0.00,Wunderground v.1.15,2013-07-19 11:10:00,
2013-07-19 06:20:00,71.4,43.0,30.05,SW,234,0.0,0.0,36,0.00,,,0.00,Wunderground v.1.15,2013-07-19 11:20:00,
2013-07-19 06:30:00,71.5,43.1,30.05,SW,234,0.0,0.0,36,0.00,,,0.00,Wunderground v.1.15,2013-07-19 11:30:00,
2013-07-19 06:40:00,71.5,43.1,30.06,SW,234,0.0,0.0,36,0.00,,,0.00,Wunderground v.1.15,2013-07-19 11:40:00,
2013-07-19 06:50:00,71.6,43.2,30.06,SW,234,0.0,0.0,36,0.00,,,0.00,Wunderground v.1.15,2013-07-19 11:50:00,
2013-07-19 07:00:00,71.8,43.4,30.06,SW,234,0.0,0.0,36,0.00,,,0.00,Wunderground v.1.15,2013-07-19 12:00:00,
2013-07-19 07:10:00,72.0,43.6,30.06,SW,234,0.0,0.0,36,0.00,,,0.00,Wunderground v.1.15,2013-07-19 12:10:00,
2013-07-19 07:20:00,72.3,43.8,30.06,SW,234,0.0,0.0,36,0.00,,,0.00,Wunderground v.1.15,2013-07-19 12:20:00,
2013-07-19 07:30:00,72.6,44.1,30.06,SW,234,0.0,0.0,36,0.00,,,0.00,Wunderground v.1.15,2013-07-19 12:30:00,
2013-07-19 07:40:00,73.2,44.6,30.07,SW,234,0.0,0.0,36,0.00,,,0.00,Wunderground v.1.15,2013-07-19 12:40:00,
2013-07-19 07:50:00,73.9,44.5,30.07,SW,234,0.0,0.0,35,0.00,,,0.00,Wunderground v.1.15,2013-07-19 12:50:00,
2013-07-19 08:00:00,74.7,45.2,30.07,North,350,0.0,0.0,35,0.00,,,0.00,Wunderground v.1.15,2013-07-19 13:00:00,
2013-07-19 08:10:00,75.7,46.1,30.08,North,355,0.0,0.0,35,0.00,,,0.00,Wunderground v.1.15,2013-07-19 13:10:00,
2013-07-19 08:20:00,76.7,47.0,30.08,East,86,0.0,0.0,35,0.00,,,0.00,Wunderground v.1.15,2013-07-19 13:20:00,
2013-07-19 08:30:00,77.3,46.7,30.08,ENE,71,0.0,0.0,34,0.00,,,0.00,Wunderground v.1.15,2013-07-19 13:30:00,
2013-07-19 08:40:00,77.6,47.0,30.08,NNE,26,0.0,2.0,34,0.00,,,0.00,Wunderground v.1.15,2013-07-19 13:40:00,
2013-07-19 08:50:00,77.8,46.4,30.08,East,90,1.0,1.0,33,0.00,,,0.00,Wunderground v.1.15,2013-07-19 13:50:00,
2013-07-19 09:00:00,78.2,45.9,30.08,East,90,1.0,1.0,32,0.00,,,0.00,Wunderground v.1.15,2013-07-19 14:00:00,
2013-07-19 09:10:00,78.4,45.3,30.09,East,80,0.0,0.0,31,0.00,,,0.00,Wunderground v.1.15,2013-07-19 14:10:00,
2013-07-19 09:20:00,78.6,44.6,30.09,NE,34,1.0,1.0,30,0.00,,,0.00,Wunderground v.1.15,2013-07-19 14:20:00,
2013-07-19 09:30:00,79.2,43.3,30.09,NNE,12,0.0,0.0,28,0.00,,,0.00,Wunderground v.1.15,2013-07-19 14:30:00,
2013-07-19 09:40:00,79.5,43.5,30.08,NNE,30,0.0,1.0,28,0.00,,,0.00,Wunderground v.1.15,2013-07-19 14:40:00,
2013-07-19 09:50:00,80.4,46.1,30.08,NNE,15,2.0,3.0,30,0.00,,,0.00,Wunderground v.1.15,2013-07-19 14:50:00,
2013-07-19 10:00:00,81.7,52.1,30.09,NNE,32,1.0,1.0,36,0.00,,,0.00,Wunderground v.1.15,2013-07-19 15:00:00,
2013-07-19 10:10:00,82.4,58.3,30.08,NE,49,1.0,1.0,44,0.00,,,0.00,Wunderground v.1.15,2013-07-19 15:10:00,
2013-07-19 10:20:00,83.1,62.5,30.09,NNE,15,1.0,1.0,50,0.00,,,0.00,Wunderground v.1.15,2013-07-19 15:20:00,
2013-07-19 10:30:00,83.6,65.2,30.09,North,5,0.0,0.0,54,0.00,,,0.00,Wunderground v.1.15,2013-07-19 15:30:00,
2013-07-19 10:40:00,83.8,66.9,30.09,ENE,65,0.0,0.0,57,0.00,,,0.00,Wunderground v.1.15,2013-07-19 15:40:00,
2013-07-19 10:50:00,84.4,69.0,30.08,North,355,1.0,2.0,60,0.00,,,0.00,Wunderground v.1.15,2013-07-19 15:50:00,
2013-07-19 11:00:00,84.7,69.8,30.08,ENE,61,1.0,1.0,61,0.00,,,0.00,Wunderground v.1.15,2013-07-19 16:00:00,
2013-07-19 11:10:00,84.4,68.5,30.08,NE,44,0.0,0.0,59,0.00,,,0.00,Wunderground v.1.15,2013-07-19 16:10:00,
2013-07-19 11:20:00,84.2,68.3,30.07,NE,55,2.0,4.0,59,0.00,,,0.00,Wunderground v.1.15,2013-07-19 16:20:00,
2013-07-19 11:30:00,84.6,71.1,30.07,ESE,106,1.0,4.0,64,0.00,,,0.00,Wunderground v.1.15,2013-07-19 16:30:00,
2013-07-19 11:40:00,84.3,71.7,30.07,NNW,340,1.0,1.0,66,0.00,,,0.00,Wunderground v.1.15,2013-07-19 16:40:00,
2013-07-19 11:50:00,84.7,71.2,30.06,South,171,0.0,0.0,64,0.00,,,0.00,Wunderground v.1.15,2013-07-19 16:50:00,
2013-07-19 12:00:00,84.9,73.6,30.06,SE,127,0.0,0.0,69,0.00,,,0.00,Wunderground v.1.15,2013-07-19 17:00:00,
2013-07-19 12:10:00,84.7,72.1,30.06,NNE,15,0.0,0.0,66,0.00,,,0.00,Wunderground v.1.15,2013-07-19 17:10:00,
2013-07-19 12:20:00,83.9,71.8,30.06,NNE,15,0.0,0.0,67,0.00,,,0.00,Wunderground v.1.15,2013-07-19 17:20:00,
2013-07-19 12:30:00,83.9,70.4,30.06,East,94,0.0,0.0,64,0.00,,,0.00,Wunderground v.1.15,2013-07-19 17:30:00,
2013-07-19 12:40:00,84.4,70.0,30.05,NE,48,0.0,0.0,62,0.00,,,0.00,Wunderground v.1.15,2013-07-19 17:40:00,
2013-07-19 12:50:00,84.8,72.2,30.05,NE,37,0.0,0.0,66,0.00,,,0.00,Wunderground v.1.15,2013-07-19 17:50:00,
2013-07-19 13:00:00,86.2,75.3,30.04,NE,37,0.0,0.0,70,0.00,,,0.00,Wunderground v.1.15,2013-07-19 18:00:00,
2013-07-19 13:10:00,87.4,77.3,30.04,NNW,336,1.0,1.0,72,0.00,,,0.00,Wunderground v.1.15,2013-07-19 18:10:00,
2013-07-19 13:20:00,87.5,76.5,30.03,NNW,336,0.0,1.0,70,0.00,,,0.00,Wunderground v.1.15,2013-07-19 18:20:00,
2013-07-19 13:30:00,86.4,76.3,30.03,NNW,345,0.0,1.0,72,0.00,,,0.00,Wunderground v.1.15,2013-07-19 18:30:00,
2013-07-19 13:40:00,85.4,74.1,30.02,ENE,63,0.0,0.0,69,0.00,,,0.00,Wunderground v.1.15,2013-07-19 18:40:00,
2013-07-19 13:50:00,84.8,71.3,30.02,ENE,61,0.0,0.0,64,0.00,,,0.00,Wunderground v.1.15,2013-07-19 18:50:00,
2013-07-19 14:00:00,84.4,70.0,30.02,ENE,61,0.0,0.0,62,0.00,,,0.00,Wunderground v.1.15,2013-07-19 19:00:00,
2013-07-19 14:10:00,83.9,70.9,30.03,South,186,0.0,0.0,65,0.00,,,0.00,Wunderground v.1.15,2013-07-19 19:10:00,
2013-07-19 14:20:00,83.3,69.8,30.03,East,80,0.0,0.0,64,0.00,,,0.00,Wunderground v.1.15,2013-07-19 19:20:00,
2013-07-19 14:30:00,81.7,65.5,30.03,NW,306,0.0,0.0,58,0.00,,,0.00,Wunderground v.1.15,2013-07-19 19:30:00,
2013-07-19 14:40:00,80.4,58.9,30.03,East,90,0.0,0.0,48,0.00,,,0.00,Wunderground v.1.15,2013-07-19 19:40:00,
2013-07-19 14:50:00,79.8,54.7,30.04,East,88,0.0,0.0,42,0.00,,,0.00,Wunderground v.1.15,2013-07-19 19:50:00,
2013-07-19 15:00:00,79.5,51.7,30.04,East,94,0.0,0.0,38,0.00,,,0.00,Wunderground v.1.15,2013-07-19 20:00:00,
2013-07-19 15:10:00,79.3,50.8,30.04,NE,52,0.0,0.0,37,0.00,,,0.00,Wunderground v.1.15,2013-07-19 20:10:00,
2013-07-19 15:20:00,79.1,49.8,30.03,NE,52,0.0,0.0,36,0.00,,,0.00,Wunderground v.1.15,2013-07-19 20:20:00,
2013-07-19 15:30:00,79.0,48.2,30.02,NE,52,0.0,0.0,34,0.00,,,0.00,Wunderground v.1.15,2013-07-19 20:30:00,
2013-07-19 15:40:00,79.0,47.4,30.01,NE,52,0.0,0.0,33,0.00,,,0.00,Wunderground v.1.15,2013-07-19 20:40:00,
2013-07-19 15:50:00,79.0,46.6,30.02,NE,52,0.0,0.0,32,0.00,,,0.00,Wunderground v.1.15,2013-07-19 20:50:00,
2013-07-19 16:00:00,79.1,46.7,30.01,NE,53,0.0,0.0,32,0.00,,,0.00,Wunderground v.1.15,2013-07-19 21:00:00,
2013-07-19 16:20:00,79.2,46.8,30.01,ENE,59,0.0,0.0,32,0.00,,,0.00,Wunderground v.1.15,2013-07-19 21:20:00,
2013-07-19 16:30:00,79.3,46.0,30.00,ENE,59,0.0,0.0,31,0.00,,,0.00,Wunderground v.1.15,2013-07-19 21:30:00,
2013-07-19 16:40:00,79.5,46.2,30.00,ENE,59,0.0,0.0,31,0.00,,,0.00,Wunderground v.1.15,2013-07-19 21:40:00,
2013-07-19 16:50:00,79.9,46.6,30.00,ENE,61,0.0,0.0,31,0.00,,,0.00,Wunderground v.1.15,2013-07-19 21:50:00,
2013-07-19 17:00:00,80.6,48.0,30.00,ENE,59,0.0,0.0,32,0.00,,,0.00,Wunderground v.1.15,2013-07-19 22:00:00,
2013-07-19 17:10:00,81.1,51.6,30.00,ENE,76,0.0,2.0,36,0.00,,,0.00,Wunderground v.1.15,2013-07-19 22:10:00,
2013-07-19 17:20:00,81.3,52.5,30.00,ENE,76,0.0,0.0,37,0.00,,,0.00,Wunderground v.1.15,2013-07-19 22:20:00,
2013-07-19 17:30:00,81.3,51.8,30.00,ENE,76,0.0,0.0,36,0.00,,,0.00,Wunderground v.1.15,2013-07-19 22:30:00,
2013-07-19 17:40:00,81.1,54.5,29.99,ENE,76,0.0,0.0,40,0.00,,,0.00,Wunderground v.1.15,2013-07-19 22:40:00,
2013-07-19 17:50:00,80.9,54.3,29.99,ENE,76,0.0,0.0,40,0.00,,,0.00,Wunderground v.1.15,2013-07-19 22:50:00,
2013-07-19 18:00:00,80.9,52.9,29.98,ENE,71,0.0,0.0,38,0.00,,,0.00,Wunderground v.1.15,2013-07-19 23:00:00,
2013-07-19 18:10:00,80.9,52.2,29.98,ENE,71,0.0,0.0,37,0.00,,,0.00,Wunderground v.1.15,2013-07-19 23:10:00,
2013-07-19 18:20:00,80.7,51.3,29.98,ENE,71,0.0,0.0,36,0.00,,,0.00,Wunderground v.1.15,2013-07-19 23:20:00,
2013-07-19 18:30:00,80.5,50.3,29.98,ENE,71,0.0,0.0,35,0.00,,,0.00,Wunderground v.1.15,2013-07-19 23:30:00,
2013-07-19 18:40:00,80.5,49.5,29.97,ENE,71,0.0,0.0,34,0.00,,,0.00,Wunderground v.1.15,2013-07-19 23:40:00,
2013-07-19 18:50:00,80.5,49.5,29.97,ENE,71,0.0,0.0,34,0.00,,,0.00,Wunderground v.1.15,2013-07-19 23:50:00,
2013-07-19 19:00:00,80.7,49.7,29.97,ENE,59,0.0,0.0,34,0.00,,,0.00,Wunderground v.1.15,2013-07-20 00:00:00,
2013-07-19 19:10:00,80.9,50.7,29.97,NE,54,0.0,0.0,35,0.00,,,0.00,Wunderground v.1.15,2013-07-20 00:10:00,
2013-07-19 19:20:00,81.0,51.5,29.97,NE,54,0.0,0.0,36,0.00,,,0.00,Wunderground v.1.15,2013-07-20 00:20:00,
2013-07-19 19:30:00,81.0,50.8,29.97,NE,54,0.0,0.0,35,0.00,,,0.00,Wunderground v.1.15,2013-07-20 00:30:00,
2013-07-19 19:40:00,80.9,49.9,29.98,NE,55,0.0,0.0,34,0.00,,,0.00,Wunderground v.1.15,2013-07-20 00:40:00,
2013-07-19 19:50:00,80.8,49.0,29.97,NE,55,0.0,0.0,33,0.00,,,0.00,Wunderground v.1.15,2013-07-20 00:50:00,
2013-07-19 20:00:00,80.5,49.5,29.98,NE,55,0.0,0.0,34,0.00,,,0.00,Wunderground v.1.15,2013-07-20 01:00:00,
2013-07-19 20:10:00,80.2,49.3,29.99,NE,55,0.0,0.0,34,0.00,,,0.00,Wunderground v.1.15,2013-07-20 01:10:00,
2013-07-19 20:20:00,80.0,48.3,29.99,NE,55,0.0,0.0,33,0.00,,,0.00,Wunderground v.1.15,2013-07-20 01:20:00,
2013-07-19 20:30:00,79.7,47.2,29.99,NE,55,0.0,0.0,32,0.00,,,0.00,Wunderground v.1.15,2013-07-20 01:30:00,
2013-07-19 20:40:00,79.2,46.8,30.00,NE,55,0.0,0.0,32,0.00,,,0.00,Wunderground v.1.15,2013-07-20 01:40:00,
2013-07-19 20:50:00,78.9,45.7,30.00,NE,55,0.0,0.0,31,0.00,,,0.00,Wunderground v.1.15,2013-07-20 01:50:00,
2013-07-19 21:00:00,78.7,44.7,30.00,NE,55,0.0,0.0,30,0.00,,,0.00,Wunderground v.1.15,2013-07-20 02:00:00,
2013-07-19 21:10:00,78.3,44.3,30.00,NE,55,0.0,0.0,30,0.00,,,0.00,Wunderground v.1.15,2013-07-20 02:10:00,
2013-07-19 21:20:00,78.0,43.2,30.01,NE,55,0.0,0.0,29,0.00,,,0.00,Wunderground v.1.15,2013-07-20 02:20:00,
2013-07-19 21:30:00,77.8,42.1,30.01,NE,55,0.0,0.0,28,0.00,,,0.00,Wunderground v.1.15,2013-07-20 02:30:00,
2013-07-19 21:40:00,77.5,40.9,30.00,NE,55,0.0,0.0,27,0.00,,,0.00,Wunderground v.1.15,2013-07-20 02:40:00,
2013-07-19 21:50:00,77.4,39.8,30.01,NE,55,0.0,0.0,26,0.00,,,0.00,Wunderground v.1.15,2013-07-20 02:50:00,
2013-07-19 22:00:00,77.2,39.6,30.01,NE,55,0.0,0.0,26,0.00,,,0.00,Wunderground v.1.15,2013-07-20 03:00:00,
2013-07-19 22:10:00,77.1,39.6,30.01,NE,55,0.0,0.0,26,0.00,,,0.00,Wunderground v.1.15,2013-07-20 03:10:00,
2013-07-19 22:20:00,77.0,38.5,30.00,NE,55,0.0,0.0,25,0.00,,,0.00,Wunderground v.1.15,2013-07-20 03:20:00,
2013-07-19 22:30:00,76.8,38.3,30.01,NE,55,0.0,0.0,25,0.00,,,0.00,Wunderground v.1.15,2013-07-20 03:30:00,
2013-07-19 22:40:00,76.7,38.2,30.01,NE,55,0.0,0.0,25,0.00,,,0.00,Wunderground v.1.15,2013-07-20 03:40:00,
2013-07-19 22:50:00,76.5,38.0,30.01,NE,55,0.0,0.0,25,0.00,,,0.00,Wunderground v.1.15,2013-07-20 03:50:00,
2013-07-19 23:00:00,76.4,38.0,30.01,NE,55,0.0,0.0,25,0.00,,,0.00,Wunderground v.1.15,2013-07-20 04:00:00,
2013-07-19 23:10:00,76.3,37.9,30.01,NE,55,0.0,0.0,25,0.00,,,0.00,Wunderground v.1.15,2013-07-20 04:10:00,
2013-07-19 23:20:00,76.2,36.8,30.01,NE,55,0.0,0.0,24,0.00,,,0.00,Wunderground v.1.15,2013-07-20 04:20:00,
2013-07-19 23:30:00,76.2,36.8,30.01,NE,55,0.0,0.0,24,0.00,,,0.00,Wunderground v.1.15,2013-07-20 04:30:00,
2013-07-19 23:40:00,76.0,36.6,30.01,NE,55,0.0,0.0,24,0.00,,,0.00,Wunderground v.1.15,2013-07-20 04:40:00,
2013-07-19 23:50:00,75.9,36.5,30.01,NE,55,0.0,0.0,24,0.00,,,0.00,Wunderground v.1.15,2013-07-20 04:50:00,